createdAt,value
2023-05-21T00:01:17.385Z,10.45
2023-05-21T00:03:46.278Z,10.45
2023-05-21T00:06:13.929Z,10.45
2023-05-21T00:08:41.196Z,10.45
2023-05-21T00:11:08.622Z,10.43
2023-05-21T00:13:35.438Z,10.38
2023-05-21T00:16:02.487Z,10.34
2023-05-21T00:18:32.489Z,10.32
2023-05-21T00:21:00.062Z,10.30
2023-05-21T00:23:26.976Z,10.28
2023-05-21T00:25:54.012Z,10.24
2023-05-21T00:28:21.152Z,10.20
2023-05-21T00:30:48.207Z,10.15
2023-05-21T00:33:15.158Z,10.14
2023-05-21T00:35:42.301Z,10.11
2023-05-21T00:38:09.149Z,10.08
2023-05-21T00:40:36.470Z,10.05
2023-05-21T00:43:03.482Z,10.02
2023-05-21T00:45:30.608Z,9.98
2023-05-21T00:47:57.609Z,9.94
2023-05-21T00:50:26.164Z,9.91
2023-05-21T00:52:53.460Z,9.89
2023-05-21T00:55:20.579Z,9.83
2023-05-21T00:57:47.572Z,9.77
2023-05-21T01:00:14.951Z,9.70
2023-05-21T01:02:42.247Z,9.63
2023-05-21T01:05:10.010Z,9.56
2023-05-21T01:07:39.098Z,9.53
2023-05-21T01:10:07.779Z,9.50
2023-05-21T01:12:35.913Z,9.47
2023-05-21T01:15:04.156Z,9.46
2023-05-21T01:17:32.143Z,9.45
2023-05-21T01:19:59.619Z,9.42
2023-05-21T01:22:28.718Z,9.41
2023-05-21T01:24:55.860Z,9.39
2023-05-21T01:27:22.983Z,9.35
2023-05-21T01:29:50.070Z,9.30
2023-05-21T01:32:23.158Z,9.26
2023-05-21T01:34:59.397Z,9.23
2023-05-21T01:37:38.236Z,9.19
2023-05-21T01:40:13.160Z,9.18
2023-05-21T01:42:43.293Z,9.17
2023-05-21T01:45:10.941Z,9.13
2023-05-21T01:47:38.317Z,9.11
2023-05-21T01:50:05.843Z,9.07
2023-05-21T01:52:32.689Z,9.05
2023-05-21T01:55:00.483Z,9.00
2023-05-21T01:57:27.268Z,8.95
2023-05-21T01:59:54.868Z,8.90
2023-05-21T02:02:21.927Z,8.88
2023-05-21T02:04:50.253Z,8.84
2023-05-21T02:07:18.488Z,8.80
2023-05-21T02:09:45.629Z,8.79
2023-05-21T02:12:12.434Z,8.76
2023-05-21T02:14:39.567Z,8.73
2023-05-21T02:17:08.177Z,8.71
2023-05-21T02:19:35.447Z,8.66
2023-05-21T02:22:02.254Z,8.62
2023-05-21T02:24:29.382Z,8.60
2023-05-21T02:26:56.359Z,8.56
2023-05-21T02:29:23.442Z,8.54
2023-05-21T02:31:51.444Z,8.53
2023-05-21T02:34:20.784Z,8.51
2023-05-21T02:36:52.467Z,8.49
2023-05-21T02:39:19.761Z,8.48
2023-05-21T02:41:47.782Z,8.46
2023-05-21T02:44:14.881Z,8.47
2023-05-21T02:46:41.635Z,8.47
2023-05-21T02:49:08.774Z,8.47
2023-05-21T02:51:35.540Z,8.44
2023-05-21T02:54:02.580Z,8.43
2023-05-21T02:56:29.329Z,8.42
2023-05-21T02:58:56.383Z,8.43
2023-05-21T03:01:23.209Z,8.40
2023-05-21T03:03:50.383Z,8.35
2023-05-21T03:06:17.122Z,8.32
2023-05-21T03:08:44.235Z,8.29
2023-05-21T03:11:11.023Z,8.29
2023-05-21T03:13:38.226Z,8.28
2023-05-21T03:16:05.496Z,8.29
2023-05-21T03:18:32.633Z,8.25
2023-05-21T03:20:59.396Z,8.23
2023-05-21T03:23:27.029Z,8.23
2023-05-21T03:25:54.001Z,8.22
2023-05-21T03:28:21.179Z,8.22
2023-05-21T03:30:49.827Z,8.23
2023-05-21T03:33:17.086Z,8.25
2023-05-21T03:35:43.887Z,8.26
2023-05-21T03:38:11.121Z,8.26
2023-05-21T03:40:37.924Z,8.28
2023-05-21T03:43:04.921Z,8.25
2023-05-21T03:45:31.688Z,8.23
2023-05-21T03:47:58.878Z,8.29
2023-05-21T03:50:25.716Z,8.40
2023-05-21T03:52:52.739Z,8.55
2023-05-21T03:55:19.569Z,8.74
2023-05-21T03:57:46.610Z,8.97
2023-05-21T04:00:14.082Z,9.18
2023-05-21T04:02:41.245Z,9.34
2023-05-21T04:05:08.267Z,9.43
2023-05-21T04:07:38.329Z,9.55
2023-05-21T04:10:05.321Z,9.75
2023-05-21T04:12:32.419Z,9.98
2023-05-21T04:14:59.146Z,10.27
2023-05-21T04:17:27.131Z,10.56
2023-05-21T04:19:54.467Z,10.87
2023-05-21T04:22:23.546Z,11.20
2023-05-21T04:24:50.558Z,11.54
2023-05-21T04:27:17.680Z,11.90
2023-05-21T04:29:44.437Z,12.26
2023-05-21T04:32:11.777Z,12.62
2023-05-21T04:34:39.733Z,12.99
2023-05-21T04:37:07.006Z,13.37
2023-05-21T04:39:34.856Z,13.71
2023-05-21T04:42:03.253Z,14.04
2023-05-21T04:44:30.093Z,14.37
2023-05-21T04:46:57.682Z,14.69
2023-05-21T04:49:24.631Z,14.96
2023-05-21T04:51:51.679Z,15.24
2023-05-21T04:54:18.412Z,15.46
2023-05-21T04:56:47.454Z,15.72
2023-05-21T04:59:14.641Z,16.00
2023-05-21T05:01:44.016Z,16.29
2023-05-21T05:04:11.019Z,16.60
2023-05-21T05:06:37.810Z,16.84
2023-05-21T05:09:04.830Z,17.03
2023-05-21T05:11:31.573Z,17.31
2023-05-21T05:13:58.676Z,17.34
2023-05-21T05:16:26.290Z,17.28
2023-05-21T05:18:53.531Z,17.39
2023-05-21T05:21:22.138Z,17.55
2023-05-21T05:23:49.196Z,17.88
2023-05-21T05:26:16.063Z,18.19
2023-05-21T05:28:43.187Z,18.31
2023-05-21T05:31:10.185Z,18.40
2023-05-21T05:33:37.433Z,18.62
2023-05-21T05:36:04.339Z,18.86
2023-05-21T05:38:31.401Z,19.11
2023-05-21T05:40:58.171Z,19.35
2023-05-21T05:43:25.750Z,19.44
2023-05-21T05:45:52.763Z,19.69
2023-05-21T05:48:19.925Z,19.93
2023-05-21T05:50:46.804Z,20.04
2023-05-21T05:53:14.695Z,20.37
2023-05-21T05:55:41.526Z,20.67
2023-05-21T05:58:08.557Z,21.07
2023-05-21T06:00:35.316Z,21.46
2023-05-21T06:03:02.468Z,21.72
2023-05-21T06:05:29.482Z,21.96
2023-05-21T06:07:56.729Z,22.39
2023-05-21T06:10:23.474Z,22.76
2023-05-21T06:12:50.541Z,23.18
2023-05-21T06:15:19.433Z,23.56
2023-05-21T06:17:46.570Z,23.95
2023-05-21T06:20:13.456Z,24.19
2023-05-21T06:22:40.530Z,24.27
2023-05-21T06:25:08.230Z,24.27
2023-05-21T06:27:35.463Z,24.13
2023-05-21T06:30:02.243Z,24.06
2023-05-21T06:32:29.567Z,24.29
2023-05-21T06:34:56.319Z,24.45
2023-05-21T06:37:24.844Z,24.76
2023-05-21T06:39:53.233Z,24.85
2023-05-21T06:42:20.628Z,24.88
2023-05-21T06:44:47.372Z,24.74
2023-05-21T06:47:14.384Z,24.80
2023-05-21T06:49:42.467Z,24.17
2023-05-21T06:52:09.615Z,23.72
2023-05-21T06:54:36.468Z,23.96
2023-05-21T06:57:03.661Z,24.31
2023-05-21T06:59:30.652Z,24.55
2023-05-21T07:01:57.791Z,24.65
2023-05-21T07:04:24.641Z,24.79
2023-05-21T07:06:52.530Z,25.02
2023-05-21T07:09:19.519Z,25.24
2023-05-21T07:11:46.589Z,25.51
2023-05-21T07:14:13.379Z,25.61
2023-05-21T07:16:40.605Z,25.33
2023-05-21T07:19:07.487Z,25.17
2023-05-21T07:21:34.650Z,25.16
2023-05-21T07:24:01.679Z,25.19
2023-05-21T07:26:28.858Z,25.27
2023-05-21T07:28:55.696Z,25.64
2023-05-21T07:31:22.822Z,26.09
2023-05-21T07:33:49.654Z,26.44
2023-05-21T07:36:16.901Z,26.64
2023-05-21T07:38:44.313Z,26.70
2023-05-21T07:41:11.448Z,26.77
2023-05-21T07:43:38.479Z,27.05
2023-05-21T07:46:05.962Z,27.16
2023-05-21T07:48:35.268Z,27.04
2023-05-21T07:51:04.049Z,26.43
2023-05-21T07:53:32.501Z,25.80
2023-05-21T07:56:00.165Z,26.11
2023-05-21T07:58:26.948Z,26.45
2023-05-21T08:00:54.160Z,26.16
2023-05-21T08:03:21.144Z,26.24
2023-05-21T08:05:49.240Z,26.01
2023-05-21T08:08:19.373Z,25.74
2023-05-21T08:10:46.736Z,25.52
2023-05-21T08:13:13.968Z,25.36
2023-05-21T08:15:41.027Z,25.28
2023-05-21T08:18:07.906Z,25.44
2023-05-21T08:20:35.022Z,25.79
2023-05-21T08:23:01.989Z,26.12
2023-05-21T08:25:29.184Z,26.61
2023-05-21T08:27:56.457Z,27.01
2023-05-21T08:30:23.612Z,27.36
2023-05-21T08:32:50.590Z,27.21
2023-05-21T08:35:17.737Z,27.21
2023-05-21T08:37:44.567Z,27.20
2023-05-21T08:40:12.419Z,27.20
2023-05-21T08:42:46.154Z,27.17
2023-05-21T08:45:16.868Z,27.27
2023-05-21T08:47:44.472Z,27.30
2023-05-21T08:50:12.725Z,26.92
2023-05-21T08:52:39.564Z,27.11
2023-05-21T08:55:07.348Z,27.55
2023-05-21T08:57:34.316Z,27.55
2023-05-21T09:00:05.010Z,27.25
2023-05-21T09:02:35.470Z,26.82
2023-05-21T09:05:03.921Z,26.64
2023-05-21T09:07:31.874Z,26.42
2023-05-21T09:10:03.347Z,26.58
2023-05-21T09:12:30.155Z,26.45
2023-05-21T09:14:58.591Z,26.46
2023-05-21T09:17:25.406Z,26.22
2023-05-21T09:20:11.161Z,26.03
2023-05-21T09:22:42.704Z,26.05
2023-05-21T09:25:11.392Z,25.84
2023-05-21T09:27:38.453Z,26.09
2023-05-21T09:30:09.277Z,26.08
2023-05-21T09:32:39.004Z,26.46
2023-05-21T09:35:07.978Z,26.77
2023-05-21T09:37:38.351Z,27.40
2023-05-21T09:40:12.672Z,28.04
2023-05-21T09:42:40.273Z,28.30
2023-05-21T09:45:11.329Z,28.74
2023-05-21T09:47:42.832Z,28.67
2023-05-21T09:50:13.256Z,28.57
2023-05-21T09:52:42.125Z,28.59
2023-05-21T09:55:13.138Z,28.97
2023-05-21T09:57:43.313Z,28.57
2023-05-21T10:00:17.806Z,28.09
2023-05-21T10:02:54.538Z,27.02
2023-05-21T10:05:24.198Z,26.25
2023-05-21T10:07:52.046Z,26.36
2023-05-21T10:10:19.976Z,26.73
2023-05-21T10:12:47.722Z,27.19
2023-05-21T10:15:17.525Z,27.61
2023-05-21T10:17:46.130Z,28.09
2023-05-21T10:20:13.537Z,28.28
2023-05-21T10:22:43.679Z,27.90
2023-05-21T10:25:10.771Z,27.83
2023-05-21T10:27:37.702Z,27.85
2023-05-21T10:30:05.975Z,28.33
2023-05-21T10:32:33.611Z,28.89
2023-05-21T10:35:02.456Z,28.76
2023-05-21T10:37:29.758Z,28.47
2023-05-21T10:39:57.016Z,28.09
2023-05-21T10:42:23.797Z,28.09
2023-05-21T10:45:00.069Z,28.35
2023-05-21T10:47:32.712Z,28.18
2023-05-21T10:50:02.605Z,28.22
2023-05-21T10:52:47.948Z,28.32
2023-05-21T10:55:27.695Z,27.92
2023-05-21T10:57:54.482Z,27.71
2023-05-21T11:00:21.729Z,27.50
2023-05-21T11:02:48.947Z,27.37
2023-05-21T11:05:16.179Z,27.28
2023-05-21T11:07:53.975Z,27.07
2023-05-21T11:10:36.647Z,27.35
2023-05-21T11:13:16.620Z,27.98
2023-05-21T11:15:58.667Z,27.82
2023-05-21T11:18:40.526Z,27.69
2023-05-21T11:21:11.431Z,27.90
2023-05-21T11:23:57.224Z,28.46
2023-05-21T11:26:27.718Z,28.72
2023-05-21T11:29:03.412Z,28.83
2023-05-21T11:31:38.076Z,29.01
2023-05-21T11:34:10.799Z,29.15
2023-05-21T11:36:38.325Z,28.85
2023-05-21T11:39:15.840Z,28.74
2023-05-21T11:41:51.858Z,28.58
2023-05-21T11:44:18.687Z,27.98
2023-05-21T11:46:46.483Z,27.41
2023-05-21T11:49:13.485Z,27.53
2023-05-21T11:51:40.793Z,27.26
2023-05-21T11:54:09.163Z,26.78
2023-05-21T11:56:36.941Z,26.65
2023-05-21T11:59:03.776Z,26.52
2023-05-21T12:01:31.325Z,26.23
2023-05-21T12:03:58.108Z,26.26
2023-05-21T12:06:28.184Z,26.24
2023-05-21T12:08:58.436Z,25.87
2023-05-21T12:11:27.502Z,25.69
2023-05-21T12:13:54.347Z,25.73
2023-05-21T12:16:22.818Z,25.76
2023-05-21T12:18:49.702Z,25.77
2023-05-21T12:21:16.985Z,25.90
2023-05-21T12:23:43.729Z,25.97
2023-05-21T12:26:11.022Z,26.08
2023-05-21T12:28:37.861Z,26.18
2023-05-21T12:31:04.974Z,26.19
2023-05-21T12:33:37.492Z,25.72
2023-05-21T12:36:04.840Z,25.67
2023-05-21T12:38:31.894Z,25.73
2023-05-21T12:41:05.904Z,25.60
2023-05-21T12:43:33.223Z,25.52
2023-05-21T12:46:00.643Z,25.43
2023-05-21T12:48:27.470Z,25.30
2023-05-21T12:50:54.547Z,25.28
2023-05-21T12:53:21.353Z,25.15
2023-05-21T12:55:48.477Z,25.10
2023-05-21T12:58:15.457Z,25.12
2023-05-21T13:00:43.740Z,25.19
2023-05-21T13:03:11.378Z,25.18
2023-05-21T13:05:40.357Z,24.94
2023-05-21T13:08:07.161Z,24.48
2023-05-21T13:10:34.271Z,24.28
2023-05-21T13:13:01.886Z,24.18
2023-05-21T13:15:29.188Z,24.20
2023-05-21T13:17:57.572Z,24.27
2023-05-21T13:20:27.290Z,24.23
2023-05-21T13:22:54.353Z,24.17
2023-05-21T13:25:22.696Z,24.10
2023-05-21T13:27:50.255Z,24.03
2023-05-21T13:30:17.682Z,24.06
2023-05-21T13:32:44.777Z,24.07
2023-05-21T13:35:12.394Z,24.02
2023-05-21T13:37:42.351Z,23.91
2023-05-21T13:40:15.190Z,23.76
2023-05-21T13:42:43.057Z,23.78
2023-05-21T13:45:11.512Z,23.77
2023-05-21T13:47:40.271Z,23.87
2023-05-21T13:50:08.355Z,23.95
2023-05-21T13:52:35.273Z,24.11
2023-05-21T13:55:02.422Z,24.13
2023-05-21T13:57:31.112Z,24.04
2023-05-21T13:59:58.620Z,23.96
2023-05-21T14:02:25.708Z,24.00
2023-05-21T14:04:53.030Z,24.09
2023-05-21T14:07:19.848Z,24.13
2023-05-21T14:09:47.767Z,24.15
2023-05-21T14:12:14.599Z,24.24
2023-05-21T14:14:42.134Z,24.18
2023-05-21T14:17:08.995Z,23.99
2023-05-21T14:19:36.107Z,23.91
2023-05-21T14:22:02.920Z,23.80
2023-05-21T14:24:30.101Z,23.59
2023-05-21T14:26:57.062Z,23.54
2023-05-21T14:29:24.196Z,23.49
2023-05-21T14:31:51.013Z,23.43
2023-05-21T14:34:18.089Z,23.51
2023-05-21T14:36:44.889Z,23.63
2023-05-21T14:39:12.009Z,23.70
2023-05-21T14:41:39.697Z,23.83
2023-05-21T14:44:06.931Z,23.84
2023-05-21T14:46:34.024Z,23.81
2023-05-21T14:49:01.256Z,23.68
2023-05-21T14:51:28.069Z,23.65
2023-05-21T14:53:57.593Z,23.54
2023-05-21T14:56:27.376Z,23.34
2023-05-21T14:58:54.771Z,23.33
2023-05-21T15:01:21.665Z,23.38
2023-05-21T15:03:49.277Z,23.42
2023-05-21T15:06:16.283Z,23.45
2023-05-21T15:08:43.436Z,23.43
2023-05-21T15:11:10.346Z,23.42
2023-05-21T15:13:38.009Z,23.37
2023-05-21T15:16:05.002Z,23.33
2023-05-21T15:18:32.127Z,23.29
2023-05-21T15:20:59.354Z,23.23
2023-05-21T15:23:26.478Z,23.15
2023-05-21T15:25:53.363Z,23.09
2023-05-21T15:28:20.780Z,23.06
2023-05-21T15:30:47.500Z,22.96
2023-05-21T15:33:14.624Z,22.92
2023-05-21T15:35:41.859Z,22.89
2023-05-21T15:38:09.377Z,22.84
2023-05-21T15:40:36.187Z,22.77
2023-05-21T15:43:03.340Z,22.69
2023-05-21T15:45:30.134Z,22.66
2023-05-21T15:47:57.242Z,22.68
2023-05-21T15:50:24.070Z,22.63
2023-05-21T15:52:53.315Z,22.48
2023-05-21T15:55:20.677Z,22.40
2023-05-21T15:57:47.712Z,22.29
2023-05-21T16:00:14.628Z,22.24
2023-05-21T16:02:42.205Z,22.24
2023-05-21T16:05:09.407Z,22.25
2023-05-21T16:07:38.143Z,22.28
2023-05-21T16:10:06.036Z,22.28
2023-05-21T16:12:33.116Z,22.27
2023-05-21T16:14:59.975Z,22.26
2023-05-21T16:17:27.107Z,22.25
2023-05-21T16:19:53.942Z,22.20
2023-05-21T16:22:21.300Z,22.14
2023-05-21T16:24:48.382Z,22.11
2023-05-21T16:27:15.621Z,22.05
2023-05-21T16:29:42.570Z,21.98
2023-05-21T16:32:10.688Z,21.93
2023-05-21T16:34:37.483Z,21.85
2023-05-21T16:37:04.665Z,21.76
2023-05-21T16:39:31.605Z,21.67
2023-05-21T16:41:59.883Z,21.61
2023-05-21T16:44:27.322Z,21.54
2023-05-21T16:46:54.489Z,21.47
2023-05-21T16:49:21.251Z,21.42
2023-05-21T16:51:48.429Z,21.34
2023-05-21T16:54:15.165Z,21.27
2023-05-21T16:56:42.231Z,21.19
2023-05-21T16:59:09.461Z,21.08
2023-05-21T17:01:36.750Z,20.95
2023-05-21T17:04:03.869Z,20.86
2023-05-21T17:06:31.750Z,20.76
2023-05-21T17:08:58.608Z,20.65
2023-05-21T17:11:25.871Z,20.56
2023-05-21T17:13:52.748Z,20.45
2023-05-21T17:16:19.970Z,20.34
2023-05-21T17:18:46.846Z,20.23
2023-05-21T17:21:14.208Z,20.13
2023-05-21T17:23:42.898Z,20.04
2023-05-21T17:26:11.163Z,19.91
2023-05-21T17:28:37.941Z,19.80
2023-05-21T17:31:07.233Z,19.68
2023-05-21T17:33:34.107Z,19.56
2023-05-21T17:36:02.173Z,19.44
2023-05-21T17:38:29.012Z,19.31
2023-05-21T17:40:56.492Z,19.19
2023-05-21T17:43:23.336Z,19.07
2023-05-21T17:45:50.504Z,18.95
2023-05-21T17:48:17.290Z,18.84
2023-05-21T17:50:46.880Z,18.70
2023-05-21T17:53:13.855Z,18.59
2023-05-21T17:55:40.999Z,18.47
2023-05-21T17:58:09.938Z,18.34
2023-05-21T18:00:37.118Z,18.19
2023-05-21T18:03:04.154Z,18.06
2023-05-21T18:05:31.700Z,17.92
2023-05-21T18:07:59.211Z,17.75
2023-05-21T18:10:26.257Z,17.61
2023-05-21T18:12:53.022Z,17.44
2023-05-21T18:15:20.099Z,17.29
2023-05-21T18:17:47.160Z,17.09
2023-05-21T18:20:14.318Z,16.90
2023-05-21T18:22:41.078Z,16.71
2023-05-21T18:25:08.547Z,16.51
2023-05-21T18:27:35.338Z,16.31
2023-05-21T18:30:05.195Z,16.09
2023-05-21T18:32:33.089Z,15.88
2023-05-21T18:35:00.227Z,15.63
2023-05-21T18:37:27.448Z,15.34
2023-05-21T18:39:54.611Z,15.13
2023-05-21T18:42:21.416Z,14.93
2023-05-21T18:44:50.757Z,14.74
2023-05-21T18:47:17.838Z,14.57
2023-05-21T18:49:44.935Z,14.38
2023-05-21T18:52:11.695Z,14.27
2023-05-21T18:54:38.749Z,14.13
2023-05-21T18:57:05.747Z,14.00
2023-05-21T18:59:32.824Z,13.85
2023-05-21T19:01:59.659Z,13.74
2023-05-21T19:04:27.467Z,13.60
2023-05-21T19:06:54.247Z,13.46
2023-05-21T19:09:21.404Z,13.31
2023-05-21T19:11:48.349Z,13.19
2023-05-21T19:14:15.396Z,13.05
2023-05-21T19:16:42.330Z,12.92
2023-05-21T19:19:09.487Z,12.80
2023-05-21T19:21:36.649Z,12.71
2023-05-21T19:24:05.913Z,12.59
2023-05-21T19:26:33.269Z,12.49
2023-05-21T19:29:00.479Z,12.41
2023-05-21T19:31:27.257Z,12.35
2023-05-21T19:33:54.371Z,12.24
2023-05-21T19:36:21.685Z,12.18
2023-05-21T19:38:49.716Z,12.10
2023-05-21T19:41:17.067Z,11.99
2023-05-21T19:43:44.676Z,11.91
2023-05-21T19:46:11.655Z,11.82
2023-05-21T19:48:38.985Z,11.75
2023-05-21T19:51:05.808Z,11.67
2023-05-21T19:53:32.941Z,11.61
2023-05-21T19:56:00.085Z,11.57
2023-05-21T19:58:29.655Z,11.51
2023-05-21T20:00:58.491Z,11.44
2023-05-21T20:03:26.600Z,11.36
2023-05-21T20:05:53.689Z,11.23
2023-05-21T20:08:20.851Z,11.18
2023-05-21T20:10:50.511Z,11.11
2023-05-21T20:13:19.104Z,11.03
2023-05-21T20:15:48.070Z,10.98
2023-05-21T20:18:15.662Z,10.91
2023-05-21T20:20:42.820Z,10.86
2023-05-21T20:23:09.913Z,10.79
2023-05-21T20:25:36.784Z,10.76
2023-05-21T20:28:05.150Z,10.73
2023-05-21T20:30:33.132Z,10.67
2023-05-21T20:33:03.672Z,10.60
2023-05-21T20:35:30.655Z,10.52
2023-05-21T20:37:57.733Z,10.50
2023-05-21T20:40:24.713Z,10.46
2023-05-21T20:42:53.626Z,10.40
2023-05-21T20:45:21.212Z,10.37
2023-05-21T20:47:50.120Z,10.32
2023-05-21T20:50:17.979Z,10.28
2023-05-21T20:52:47.259Z,10.21
2023-05-21T20:55:14.608Z,10.16
2023-05-21T20:57:42.212Z,10.09
2023-05-21T21:00:11.564Z,10.05
2023-05-21T21:02:39.231Z,9.99
2023-05-21T21:05:06.543Z,9.94
2023-05-21T21:07:34.394Z,9.89
2023-05-21T21:10:01.590Z,9.85
2023-05-21T21:12:28.811Z,9.82
2023-05-21T21:14:55.737Z,9.76
2023-05-21T21:17:23.281Z,9.71
2023-05-21T21:19:50.206Z,9.67
2023-05-21T21:22:18.496Z,9.62
2023-05-21T21:24:45.882Z,9.54
2023-05-21T21:27:13.185Z,9.49
2023-05-21T21:29:39.961Z,9.44
2023-05-21T21:32:07.228Z,9.40
2023-05-21T21:34:33.967Z,9.34
2023-05-21T21:37:01.020Z,9.29
2023-05-21T21:39:27.768Z,9.22
2023-05-21T21:41:54.841Z,9.19
2023-05-21T21:44:21.624Z,9.13
2023-05-21T21:46:48.658Z,9.08
2023-05-21T21:49:17.503Z,9.06
2023-05-21T21:51:44.890Z,9.03
2023-05-21T21:54:12.093Z,8.99
2023-05-21T21:56:39.222Z,8.99
2023-05-21T21:59:06.017Z,8.95
2023-05-21T22:01:33.627Z,8.99
2023-05-21T22:04:00.548Z,9.01
2023-05-21T22:06:28.705Z,8.98
2023-05-21T22:08:55.663Z,8.95
2023-05-21T22:11:22.957Z,8.90
2023-05-21T22:13:49.835Z,8.87
2023-05-21T22:16:16.946Z,8.85
2023-05-21T22:18:43.911Z,8.82
2023-05-21T22:21:14.314Z,8.78
2023-05-21T22:23:41.512Z,8.73
2023-05-21T22:26:09.278Z,8.70
2023-05-21T22:28:36.140Z,8.64
2023-05-21T22:31:03.398Z,8.61
2023-05-21T22:33:30.376Z,8.55
2023-05-21T22:35:58.233Z,8.50
2023-05-21T22:38:25.734Z,8.44
2023-05-21T22:40:52.796Z,8.37
2023-05-21T22:43:19.599Z,8.31
2023-05-21T22:45:46.665Z,8.27
2023-05-21T22:48:14.389Z,8.22
2023-05-21T22:50:41.580Z,8.17
2023-05-21T22:53:08.428Z,8.12
2023-05-21T22:55:35.588Z,8.05
2023-05-21T22:58:02.525Z,8.00
2023-05-21T23:00:29.780Z,7.98
2023-05-21T23:02:56.628Z,7.95
2023-05-21T23:05:23.879Z,7.91
2023-05-21T23:07:50.779Z,7.89
2023-05-21T23:10:18.096Z,7.87
2023-05-21T23:12:44.901Z,7.81
2023-05-21T23:15:12.089Z,7.79
2023-05-21T23:17:38.904Z,7.77
2023-05-21T23:20:07.339Z,7.70
2023-05-21T23:22:34.485Z,7.66
2023-05-21T23:25:01.659Z,7.64
2023-05-21T23:27:28.671Z,7.63
2023-05-21T23:29:55.865Z,7.60
2023-05-21T23:32:23.754Z,7.56
2023-05-21T23:34:50.977Z,7.53
2023-05-21T23:37:17.810Z,7.47
2023-05-21T23:39:49.583Z,7.46
2023-05-21T23:42:17.019Z,7.43
2023-05-21T23:44:44.254Z,7.38
2023-05-21T23:47:11.030Z,7.35
2023-05-21T23:49:38.065Z,7.33
2023-05-21T23:52:05.534Z,7.28
2023-05-21T23:54:32.716Z,7.24
2023-05-21T23:56:59.444Z,7.21
2023-05-21T23:59:26.531Z,7.14
